sensor_id;sensor_type;location;lat;lon;timestamp;P1;durP1;ratioP1;P2;durP2;ratioP2
15198;SDS011;7700;48.654;9.070;2022-11-20T00:01:24;4.20;;;3.80;;
15198;SDS011;7700;48.654;9.070;2022-11-20T00:03:51;5.00;;;4.43;;
15198;SDS011;7700;48.654;9.070;2022-11-20T00:06:17;3.80;;;3.43;;
15198;SDS011;7700;48.654;9.070;2022-11-20T00:08:44;4.37;;;3.53;;
15198;SDS011;7700;48.654;9.070;2022-11-20T00:11:18;5.07;;;3.70;;
15198;SDS011;7700;48.654;9.070;2022-11-20T00:13:44;3.83;;;3.50;;
15198;SDS011;7700;48.654;9.070;2022-11-20T00:16:13;3.80;;;3.50;;
15198;SDS011;7700;48.654;9.070;2022-11-20T00:18:39;4.10;;;3.60;;
15198;SDS011;7700;48.654;9.070;2022-11-20T00:21:09;3.80;;;3.40;;
15198;SDS011;7700;48.654;9.070;2022-11-20T00:23:35;4.37;;;3.40;;
15198;SDS011;7700;48.654;9.070;2022-11-20T00:26:05;3.40;;;3.10;;
15198;SDS011;7700;48.654;9.070;2022-11-20T00:28:31;3.80;;;3.50;;
15198;SDS011;7700;48.654;9.070;2022-11-20T00:31:08;4.03;;;3.00;;
15198;SDS011;7700;48.654;9.070;2022-11-20T00:33:35;4.07;;;3.10;;
15198;SDS011;7700;48.654;9.070;2022-11-20T00:36:05;3.53;;;2.50;;
15198;SDS011;7700;48.654;9.070;2022-11-20T00:38:32;2.83;;;2.60;;
15198;SDS011;7700;48.654;9.070;2022-11-20T00:40:59;2.47;;;2.27;;
15198;SDS011;7700;48.654;9.070;2022-11-20T00:43:25;2.80;;;2.60;;
15198;SDS011;7700;48.654;9.070;2022-11-20T00:46:02;4.43;;;2.80;;
15198;SDS011;7700;48.654;9.070;2022-11-20T00:48:28;3.37;;;2.90;;
15198;SDS011;7700;48.654;9.070;2022-11-20T00:50:55;2.53;;;2.33;;
15198;SDS011;7700;48.654;9.070;2022-11-20T00:53:21;3.30;;;2.80;;
15198;SDS011;7700;48.654;9.070;2022-11-20T00:55:54;2.80;;;2.60;;
15198;SDS011;7700;48.654;9.070;2022-11-20T00:58:21;2.80;;;2.60;;
15198;SDS011;7700;48.654;9.070;2022-11-20T01:00:47;2.60;;;2.40;;
15198;SDS011;7700;48.654;9.070;2022-11-20T01:03:14;3.43;;;2.50;;
15198;SDS011;7700;48.654;9.070;2022-11-20T01:05:41;3.50;;;3.20;;
15198;SDS011;7700;48.654;9.070;2022-11-20T01:08:07;4.03;;;2.67;;
15198;SDS011;7700;48.654;9.070;2022-11-20T01:10:33;3.33;;;2.30;;
15198;SDS011;7700;48.654;9.070;2022-11-20T01:12:59;4.00;;;2.80;;
15198;SDS011;7700;48.654;9.070;2022-11-20T01:15:43;3.17;;;2.50;;
15198;SDS011;7700;48.654;9.070;2022-11-20T01:18:09;2.53;;;2.33;;
15198;SDS011;7700;48.654;9.070;2022-11-20T01:20:36;3.80;;;2.90;;
15198;SDS011;7700;48.654;9.070;2022-11-20T01:23:02;2.80;;;2.60;;
15198;SDS011;7700;48.654;9.070;2022-11-20T01:25:28;2.80;;;2.60;;
15198;SDS011;7700;48.654;9.070;2022-11-20T01:27:54;3.13;;;2.83;;
15198;SDS011;7700;48.654;9.070;2022-11-20T01:30:20;3.17;;;2.87;;
15198;SDS011;7700;48.654;9.070;2022-11-20T01:32:46;3.37;;;2.93;;
15198;SDS011;7700;48.654;9.070;2022-11-20T01:35:12;2.90;;;2.70;;
15198;SDS011;7700;48.654;9.070;2022-11-20T01:37:38;3.70;;;2.70;;
15198;SDS011;7700;48.654;9.070;2022-11-20T01:40:04;3.50;;;3.07;;
15198;SDS011;7700;48.654;9.070;2022-11-20T01:42:31;2.90;;;2.60;;
15198;SDS011;7700;48.654;9.070;2022-11-20T01:48:00;3.30;;;2.77;;
15198;SDS011;7700;48.654;9.070;2022-11-20T01:50:27;3.17;;;2.63;;
15198;SDS011;7700;48.654;9.070;2022-11-20T01:53:00;2.77;;;2.57;;
15198;SDS011;7700;48.654;9.070;2022-11-20T01:55:31;2.77;;;2.57;;
15198;SDS011;7700;48.654;9.070;2022-11-20T01:57:58;3.97;;;3.07;;
15198;SDS011;7700;48.654;9.070;2022-11-20T02:00:24;2.67;;;2.47;;
15198;SDS011;7700;48.654;9.070;2022-11-20T02:02:51;3.60;;;2.70;;
15198;SDS011;7700;48.654;9.070;2022-11-20T02:05:20;2.97;;;2.67;;
15198;SDS011;7700;48.654;9.070;2022-11-20T02:07:48;2.90;;;2.70;;
15198;SDS011;7700;48.654;9.070;2022-11-20T02:10:15;2.87;;;2.67;;
15198;SDS011;7700;48.654;9.070;2022-11-20T02:12:41;3.27;;;2.97;;
15198;SDS011;7700;48.654;9.070;2022-11-20T02:15:26;3.93;;;3.07;;
15198;SDS011;7700;48.654;9.070;2022-11-20T02:17:52;4.40;;;3.13;;
15198;SDS011;7700;48.654;9.070;2022-11-20T02:20:19;3.83;;;3.47;;
15198;SDS011;7700;48.654;9.070;2022-11-20T02:22:54;3.77;;;3.40;;
15198;SDS011;7700;48.654;9.070;2022-11-20T02:25:21;4.63;;;4.23;;
15198;SDS011;7700;48.654;9.070;2022-11-20T02:27:47;5.37;;;4.10;;
15198;SDS011;7700;48.654;9.070;2022-11-20T02:30:13;5.70;;;3.80;;
15198;SDS011;7700;48.654;9.070;2022-11-20T02:32:40;4.63;;;3.87;;
15198;SDS011;7700;48.654;9.070;2022-11-20T02:35:10;4.10;;;3.80;;
15198;SDS011;7700;48.654;9.070;2022-11-20T02:37:57;4.47;;;4.07;;
15198;SDS011;7700;48.654;9.070;2022-11-20T02:40:23;4.73;;;4.10;;
15198;SDS011;7700;48.654;9.070;2022-11-20T02:42:53;5.17;;;4.70;;
15198;SDS011;7700;48.654;9.070;2022-11-20T02:45:19;4.67;;;4.20;;
15198;SDS011;7700;48.654;9.070;2022-11-20T02:47:45;5.63;;;4.80;;
15198;SDS011;7700;48.654;9.070;2022-11-20T02:50:11;4.40;;;4.00;;
15198;SDS011;7700;48.654;9.070;2022-11-20T02:52:38;6.27;;;4.23;;
15198;SDS011;7700;48.654;9.070;2022-11-20T02:55:04;5.20;;;4.80;;
15198;SDS011;7700;48.654;9.070;2022-11-20T02:57:30;5.10;;;4.67;;
15198;SDS011;7700;48.654;9.070;2022-11-20T02:59:56;5.13;;;4.63;;
15198;SDS011;7700;48.654;9.070;2022-11-20T03:02:22;5.00;;;4.47;;
15198;SDS011;7700;48.654;9.070;2022-11-20T03:04:48;5.40;;;4.43;;
15198;SDS011;7700;48.654;9.070;2022-11-20T03:07:14;5.33;;;4.27;;
15198;SDS011;7700;48.654;9.070;2022-11-20T03:09:40;4.27;;;3.83;;
15198;SDS011;7700;48.654;9.070;2022-11-20T03:12:06;5.07;;;4.40;;
15198;SDS011;7700;48.654;9.070;2022-11-20T03:14:32;4.93;;;4.30;;
15198;SDS011;7700;48.654;9.070;2022-11-20T03:16:58;4.40;;;4.00;;
15198;SDS011;7700;48.654;9.070;2022-11-20T03:19:24;4.53;;;3.90;;
15198;SDS011;7700;48.654;9.070;2022-11-20T03:21:50;5.10;;;4.17;;
15198;SDS011;7700;48.654;9.070;2022-11-20T03:24:16;3.73;;;3.43;;
15198;SDS011;7700;48.654;9.070;2022-11-20T03:26:42;4.50;;;3.70;;
15198;SDS011;7700;48.654;9.070;2022-11-20T03:29:08;4.23;;;3.83;;
15198;SDS011;7700;48.654;9.070;2022-11-20T03:31:35;4.87;;;3.87;;
15198;SDS011;7700;48.654;9.070;2022-11-20T03:34:02;4.87;;;4.47;;
15198;SDS011;7700;48.654;9.070;2022-11-20T03:36:28;4.10;;;3.70;;
15198;SDS011;7700;48.654;9.070;2022-11-20T03:38:54;3.93;;;3.63;;
15198;SDS011;7700;48.654;9.070;2022-11-20T03:41:22;4.20;;;3.83;;
15198;SDS011;7700;48.654;9.070;2022-11-20T03:43:52;4.37;;;3.90;;
15198;SDS011;7700;48.654;9.070;2022-11-20T03:46:18;5.63;;;4.37;;
15198;SDS011;7700;48.654;9.070;2022-11-20T03:48:44;4.33;;;3.80;;
15198;SDS011;7700;48.654;9.070;2022-11-20T03:51:12;4.03;;;3.63;;
15198;SDS011;7700;48.654;9.070;2022-11-20T03:53:38;4.27;;;3.87;;
15198;SDS011;7700;48.654;9.070;2022-11-20T03:56:05;4.03;;;3.70;;
15198;SDS011;7700;48.654;9.070;2022-11-20T03:58:32;5.13;;;4.10;;
15198;SDS011;7700;48.654;9.070;2022-11-20T04:01:03;4.30;;;3.90;;
15198;SDS011;7700;48.654;9.070;2022-11-20T04:03:29;6.03;;;3.90;;
15198;SDS011;7700;48.654;9.070;2022-11-20T04:05:55;3.83;;;3.27;;
15198;SDS011;7700;48.654;9.070;2022-11-20T04:08:21;4.80;;;3.83;;
15198;SDS011;7700;48.654;9.070;2022-11-20T04:10:47;4.13;;;3.73;;
15198;SDS011;7700;48.654;9.070;2022-11-20T04:13:13;3.97;;;3.57;;
15198;SDS011;7700;48.654;9.070;2022-11-20T04:15:39;4.93;;;4.00;;
15198;SDS011;7700;48.654;9.070;2022-11-20T04:18:05;5.20;;;4.20;;
15198;SDS011;7700;48.654;9.070;2022-11-20T04:20:31;4.43;;;4.03;;
15198;SDS011;7700;48.654;9.070;2022-11-20T04:22:57;4.37;;;3.97;;
15198;SDS011;7700;48.654;9.070;2022-11-20T04:25:23;4.40;;;4.00;;
15198;SDS011;7700;48.654;9.070;2022-11-20T04:27:49;4.83;;;3.70;;
15198;SDS011;7700;48.654;9.070;2022-11-20T04:30:15;4.10;;;3.80;;
15198;SDS011;7700;48.654;9.070;2022-11-20T04:32:41;4.43;;;3.80;;
15198;SDS011;7700;48.654;9.070;2022-11-20T04:35:07;4.50;;;4.10;;
15198;SDS011;7700;48.654;9.070;2022-11-20T04:37:33;4.27;;;3.80;;
15198;SDS011;7700;48.654;9.070;2022-11-20T04:39:59;5.20;;;3.90;;
15198;SDS011;7700;48.654;9.070;2022-11-20T04:42:25;5.63;;;4.47;;
15198;SDS011;7700;48.654;9.070;2022-11-20T04:44:54;4.43;;;3.60;;
15198;SDS011;7700;48.654;9.070;2022-11-20T04:47:20;4.13;;;3.83;;
15198;SDS011;7700;48.654;9.070;2022-11-20T04:49:46;4.07;;;3.67;;
15198;SDS011;7700;48.654;9.070;2022-11-20T04:52:12;3.87;;;3.47;;
15198;SDS011;7700;48.654;9.070;2022-11-20T04:54:38;4.20;;;3.90;;
15198;SDS011;7700;48.654;9.070;2022-11-20T04:57:04;3.50;;;3.20;;
15198;SDS011;7700;48.654;9.070;2022-11-20T04:59:30;3.70;;;3.40;;
15198;SDS011;7700;48.654;9.070;2022-11-20T05:01:56;4.13;;;3.30;;
15198;SDS011;7700;48.654;9.070;2022-11-20T05:04:22;3.37;;;3.07;;
15198;SDS011;7700;48.654;9.070;2022-11-20T05:06:49;3.73;;;3.43;;
15198;SDS011;7700;48.654;9.070;2022-11-20T05:09:15;3.47;;;3.17;;
15198;SDS011;7700;48.654;9.070;2022-11-20T05:11:41;5.37;;;3.40;;
15198;SDS011;7700;48.654;9.070;2022-11-20T05:14:07;4.00;;;3.70;;
15198;SDS011;7700;48.654;9.070;2022-11-20T05:16:33;3.73;;;3.40;;
15198;SDS011;7700;48.654;9.070;2022-11-20T05:19:00;3.43;;;3.10;;
15198;SDS011;7700;48.654;9.070;2022-11-20T05:21:26;4.60;;;3.50;;
15198;SDS011;7700;48.654;9.070;2022-11-20T05:23:52;3.20;;;2.90;;
15198;SDS011;7700;48.654;9.070;2022-11-20T05:26:20;3.87;;;3.00;;
15198;SDS011;7700;48.654;9.070;2022-11-20T05:28:47;3.67;;;3.27;;
15198;SDS011;7700;48.654;9.070;2022-11-20T05:31:14;3.20;;;3.00;;
15198;SDS011;7700;48.654;9.070;2022-11-20T05:33:42;3.37;;;3.07;;
15198;SDS011;7700;48.654;9.070;2022-11-20T05:36:08;4.07;;;3.00;;
15198;SDS011;7700;48.654;9.070;2022-11-20T05:38:34;3.70;;;3.33;;
15198;SDS011;7700;48.654;9.070;2022-11-20T05:41:04;3.70;;;3.40;;
15198;SDS011;7700;48.654;9.070;2022-11-20T05:43:37;3.10;;;2.80;;
15198;SDS011;7700;48.654;9.070;2022-11-20T05:46:04;3.43;;;3.07;;
15198;SDS011;7700;48.654;9.070;2022-11-20T05:48:31;2.97;;;2.77;;
15198;SDS011;7700;48.654;9.070;2022-11-20T05:51:01;3.33;;;2.90;;
15198;SDS011;7700;48.654;9.070;2022-11-20T05:53:28;4.97;;;2.80;;
15198;SDS011;7700;48.654;9.070;2022-11-20T05:56:27;3.03;;;2.77;;
15198;SDS011;7700;48.654;9.070;2022-11-20T05:58:46;3.17;;;2.93;;
15198;SDS011;7700;48.654;9.070;2022-11-20T06:01:19;3.33;;;3.10;;
15198;SDS011;7700;48.654;9.070;2022-11-20T06:03:46;3.70;;;3.30;;
15198;SDS011;7700;48.654;9.070;2022-11-20T06:06:13;4.17;;;3.60;;
15198;SDS011;7700;48.654;9.070;2022-11-20T06:08:39;3.00;;;2.70;;
15198;SDS011;7700;48.654;9.070;2022-11-20T06:11:06;3.83;;;2.90;;
15198;SDS011;7700;48.654;9.070;2022-11-20T06:13:33;3.47;;;3.17;;
15198;SDS011;7700;48.654;9.070;2022-11-20T06:15:59;3.80;;;2.63;;
15198;SDS011;7700;48.654;9.070;2022-11-20T06:18:26;4.37;;;2.57;;
15198;SDS011;7700;48.654;9.070;2022-11-20T06:21:03;3.57;;;3.27;;
15198;SDS011;7700;48.654;9.070;2022-11-20T06:23:30;2.90;;;2.70;;
15198;SDS011;7700;48.654;9.070;2022-11-20T06:25:56;3.53;;;3.23;;
15198;SDS011;7700;48.654;9.070;2022-11-20T06:28:22;3.20;;;2.90;;
15198;SDS011;7700;48.654;9.070;2022-11-20T06:30:48;3.73;;;3.33;;
15198;SDS011;7700;48.654;9.070;2022-11-20T06:33:14;4.50;;;3.27;;
15198;SDS011;7700;48.654;9.070;2022-11-20T06:35:40;3.43;;;2.83;;
15198;SDS011;7700;48.654;9.070;2022-11-20T06:38:06;3.67;;;3.30;;
15198;SDS011;7700;48.654;9.070;2022-11-20T06:40:32;3.53;;;2.67;;
15198;SDS011;7700;48.654;9.070;2022-11-20T06:42:58;3.63;;;3.33;;
15198;SDS011;7700;48.654;9.070;2022-11-20T06:45:24;3.00;;;2.77;;
15198;SDS011;7700;48.654;9.070;2022-11-20T06:47:50;3.40;;;3.10;;
15198;SDS011;7700;48.654;9.070;2022-11-20T06:50:16;4.67;;;3.30;;
15198;SDS011;7700;48.654;9.070;2022-11-20T06:52:42;3.43;;;2.90;;
15198;SDS011;7700;48.654;9.070;2022-11-20T06:55:08;3.57;;;3.23;;
15198;SDS011;7700;48.654;9.070;2022-11-20T06:57:34;3.83;;;2.70;;
15198;SDS011;7700;48.654;9.070;2022-11-20T07:00:00;4.17;;;3.50;;
15198;SDS011;7700;48.654;9.070;2022-11-20T07:02:27;3.57;;;3.27;;
15198;SDS011;7700;48.654;9.070;2022-11-20T07:04:53;4.83;;;3.87;;
15198;SDS011;7700;48.654;9.070;2022-11-20T07:07:19;4.13;;;2.87;;
15198;SDS011;7700;48.654;9.070;2022-11-20T07:09:45;4.00;;;3.60;;
15198;SDS011;7700;48.654;9.070;2022-11-20T07:12:11;2.83;;;2.63;;
15198;SDS011;7700;48.654;9.070;2022-11-20T07:14:37;4.90;;;3.37;;
15198;SDS011;7700;48.654;9.070;2022-11-20T07:17:03;4.37;;;3.63;;
15198;SDS011;7700;48.654;9.070;2022-11-20T07:19:29;3.83;;;3.43;;
15198;SDS011;7700;48.654;9.070;2022-11-20T07:21:55;3.90;;;3.53;;
15198;SDS011;7700;48.654;9.070;2022-11-20T07:24:21;3.40;;;3.10;;
15198;SDS011;7700;48.654;9.070;2022-11-20T07:26:47;3.73;;;3.10;;
15198;SDS011;7700;48.654;9.070;2022-11-20T07:29:14;3.30;;;3.00;;
15198;SDS011;7700;48.654;9.070;2022-11-20T07:31:40;2.63;;;2.43;;
15198;SDS011;7700;48.654;9.070;2022-11-20T07:34:06;2.97;;;2.67;;
15198;SDS011;7700;48.654;9.070;2022-11-20T07:36:32;3.03;;;2.73;;
15198;SDS011;7700;48.654;9.070;2022-11-20T07:38:58;2.33;;;2.13;;
15198;SDS011;7700;48.654;9.070;2022-11-20T07:41:24;3.67;;;2.77;;
15198;SDS011;7700;48.654;9.070;2022-11-20T07:43:50;5.30;;;3.70;;
15198;SDS011;7700;48.654;9.070;2022-11-20T07:46:16;3.77;;;3.20;;
15198;SDS011;7700;48.654;9.070;2022-11-20T07:48:42;3.50;;;3.17;;
15198;SDS011;7700;48.654;9.070;2022-11-20T07:51:08;3.23;;;3.00;;
15198;SDS011;7700;48.654;9.070;2022-11-20T07:53:34;2.27;;;2.10;;
15198;SDS011;7700;48.654;9.070;2022-11-20T07:56:00;2.70;;;2.10;;
15198;SDS011;7700;48.654;9.070;2022-11-20T07:58:28;2.50;;;2.30;;
15198;SDS011;7700;48.654;9.070;2022-11-20T08:00:54;4.03;;;2.60;;
15198;SDS011;7700;48.654;9.070;2022-11-20T08:03:20;2.50;;;2.30;;
15198;SDS011;7700;48.654;9.070;2022-11-20T08:05:46;2.80;;;2.57;;
15198;SDS011;7700;48.654;9.070;2022-11-20T08:08:12;2.83;;;2.53;;
15198;SDS011;7700;48.654;9.070;2022-11-20T08:10:38;4.30;;;2.73;;
15198;SDS011;7700;48.654;9.070;2022-11-20T08:13:04;4.43;;;2.30;;
15198;SDS011;7700;48.654;9.070;2022-11-20T08:15:49;3.57;;;3.27;;
15198;SDS011;7700;48.654;9.070;2022-11-20T08:18:15;2.47;;;2.30;;
15198;SDS011;7700;48.654;9.070;2022-11-20T08:20:42;3.33;;;3.10;;
15198;SDS011;7700;48.654;9.070;2022-11-20T08:23:08;3.20;;;2.90;;
15198;SDS011;7700;48.654;9.070;2022-11-20T08:25:35;3.80;;;3.00;;
15198;SDS011;7700;48.654;9.070;2022-11-20T08:28:02;3.10;;;2.80;;
15198;SDS011;7700;48.654;9.070;2022-11-20T08:30:28;2.50;;;2.30;;
15198;SDS011;7700;48.654;9.070;2022-11-20T08:32:54;3.90;;;2.73;;
15198;SDS011;7700;48.654;9.070;2022-11-20T08:35:21;2.83;;;2.63;;
15198;SDS011;7700;48.654;9.070;2022-11-20T08:37:47;3.03;;;2.73;;
15198;SDS011;7700;48.654;9.070;2022-11-20T08:40:13;2.80;;;2.60;;
15198;SDS011;7700;48.654;9.070;2022-11-20T08:42:45;3.07;;;2.77;;
15198;SDS011;7700;48.654;9.070;2022-11-20T08:45:12;3.37;;;3.07;;
15198;SDS011;7700;48.654;9.070;2022-11-20T08:47:38;2.83;;;2.63;;
15198;SDS011;7700;48.654;9.070;2022-11-20T08:50:04;2.87;;;2.50;;
15198;SDS011;7700;48.654;9.070;2022-11-20T08:52:30;2.33;;;2.00;;
15198;SDS011;7700;48.654;9.070;2022-11-20T08:54:56;1.90;;;1.70;;
15198;SDS011;7700;48.654;9.070;2022-11-20T08:57:22;1.83;;;1.73;;
15198;SDS011;7700;48.654;9.070;2022-11-20T08:59:48;2.30;;;1.70;;
15198;SDS011;7700;48.654;9.070;2022-11-20T09:02:14;1.50;;;1.40;;
15198;SDS011;7700;48.654;9.070;2022-11-20T09:04:40;1.83;;;1.30;;
15198;SDS011;7700;48.654;9.070;2022-11-20T09:07:06;1.50;;;1.40;;
15198;SDS011;7700;48.654;9.070;2022-11-20T09:09:32;1.40;;;1.30;;
15198;SDS011;7700;48.654;9.070;2022-11-20T09:11:58;1.10;;;0.90;;
15198;SDS011;7700;48.654;9.070;2022-11-20T09:14:24;1.40;;;1.30;;
15198;SDS011;7700;48.654;9.070;2022-11-20T09:16:54;1.20;;;1.10;;
15198;SDS011;7700;48.654;9.070;2022-11-20T09:19:20;1.77;;;1.17;;
15198;SDS011;7700;48.654;9.070;2022-11-20T09:21:46;1.60;;;1.50;;
15198;SDS011;7700;48.654;9.070;2022-11-20T09:24:12;1.60;;;1.50;;
15198;SDS011;7700;48.654;9.070;2022-11-20T09:26:38;1.40;;;1.30;;
15198;SDS011;7700;48.654;9.070;2022-11-20T09:29:04;1.57;;;1.47;;
15198;SDS011;7700;48.654;9.070;2022-11-20T09:31:30;1.50;;;1.40;;
15198;SDS011;7700;48.654;9.070;2022-11-20T09:33:56;1.70;;;1.60;;
15198;SDS011;7700;48.654;9.070;2022-11-20T09:36:23;1.33;;;1.27;;
15198;SDS011;7700;48.654;9.070;2022-11-20T09:38:49;2.00;;;1.90;;
15198;SDS011;7700;48.654;9.070;2022-11-20T09:43:57;1.67;;;1.57;;
15198;SDS011;7700;48.654;9.070;2022-11-20T09:54:17;1.47;;;1.37;;
15198;SDS011;7700;48.654;9.070;2022-11-20T09:56:49;1.07;;;0.97;;
15198;SDS011;7700;48.654;9.070;2022-11-20T09:59:20;1.57;;;1.37;;
15198;SDS011;7700;48.654;9.070;2022-11-20T10:04:13;1.00;;;0.93;;
15198;SDS011;7700;48.654;9.070;2022-11-20T10:06:18;0.80;;;0.80;;
15198;SDS011;7700;48.654;9.070;2022-11-20T10:11:51;1.87;;;1.10;;
15198;SDS011;7700;48.654;9.070;2022-11-20T10:17:03;1.53;;;0.80;;
15198;SDS011;7700;48.654;9.070;2022-11-20T10:30:06;1.70;;;1.40;;
15198;SDS011;7700;48.654;9.070;2022-11-20T10:32:45;2.73;;;1.07;;
15198;SDS011;7700;48.654;9.070;2022-11-20T10:35:20;1.07;;;1.00;;
15198;SDS011;7700;48.654;9.070;2022-11-20T10:37:49;1.30;;;1.20;;
15198;SDS011;7700;48.654;9.070;2022-11-20T10:47:41;2.17;;;1.60;;
15198;SDS011;7700;48.654;9.070;2022-11-20T10:50:09;1.30;;;1.30;;
15198;SDS011;7700;48.654;9.070;2022-11-20T11:00:25;1.77;;;1.23;;
15198;SDS011;7700;48.654;9.070;2022-11-20T11:02:54;1.87;;;1.70;;
15198;SDS011;7700;48.654;9.070;2022-11-20T11:05:37;1.67;;;1.57;;
15198;SDS011;7700;48.654;9.070;2022-11-20T11:08:05;1.97;;;1.87;;
15198;SDS011;7700;48.654;9.070;2022-11-20T11:13:22;1.83;;;1.50;;
15198;SDS011;7700;48.654;9.070;2022-11-20T11:15:48;2.33;;;2.10;;
15198;SDS011;7700;48.654;9.070;2022-11-20T11:18:28;3.73;;;2.80;;
15198;SDS011;7700;48.654;9.070;2022-11-20T11:20:55;2.60;;;2.20;;
15198;SDS011;7700;48.654;9.070;2022-11-20T11:23:32;3.20;;;2.70;;
15198;SDS011;7700;48.654;9.070;2022-11-20T11:26:00;2.33;;;2.00;;
15198;SDS011;7700;48.654;9.070;2022-11-20T11:28:26;2.07;;;1.87;;
15198;SDS011;7700;48.654;9.070;2022-11-20T11:30:53;4.37;;;2.70;;
15198;SDS011;7700;48.654;9.070;2022-11-20T11:33:20;2.30;;;2.10;;
15198;SDS011;7700;48.654;9.070;2022-11-20T11:35:47;1.53;;;1.40;;
15198;SDS011;7700;48.654;9.070;2022-11-20T11:38:14;2.20;;;2.00;;
15198;SDS011;7700;48.654;9.070;2022-11-20T11:40:41;2.70;;;2.50;;
15198;SDS011;7700;48.654;9.070;2022-11-20T11:43:16;3.77;;;1.87;;
15198;SDS011;7700;48.654;9.070;2022-11-20T11:46:01;2.17;;;1.77;;
15198;SDS011;7700;48.654;9.070;2022-11-20T11:48:28;2.13;;;1.47;;
15198;SDS011;7700;48.654;9.070;2022-11-20T11:50:53;1.87;;;1.40;;
15198;SDS011;7700;48.654;9.070;2022-11-20T11:53:21;4.10;;;1.80;;
15198;SDS011;7700;48.654;9.070;2022-11-20T11:55:53;2.13;;;1.50;;
15198;SDS011;7700;48.654;9.070;2022-11-20T11:58:30;2.03;;;1.00;;
15198;SDS011;7700;48.654;9.070;2022-11-20T12:01:13;1.20;;;1.10;;
15198;SDS011;7700;48.654;9.070;2022-11-20T12:03:41;2.17;;;1.03;;
15198;SDS011;7700;48.654;9.070;2022-11-20T12:06:11;3.07;;;1.10;;
15198;SDS011;7700;48.654;9.070;2022-11-20T12:16:12;6.13;;;4.63;;
15198;SDS011;7700;48.654;9.070;2022-11-20T12:18:39;3.90;;;2.17;;
15198;SDS011;7700;48.654;9.070;2022-11-20T12:21:10;3.20;;;1.50;;
15198;SDS011;7700;48.654;9.070;2022-11-20T12:26:06;2.63;;;1.47;;
15198;SDS011;7700;48.654;9.070;2022-11-20T12:33:49;2.83;;;2.23;;
15198;SDS011;7700;48.654;9.070;2022-11-20T12:39:02;1.37;;;1.13;;
15198;SDS011;7700;48.654;9.070;2022-11-20T12:47:33;3.03;;;2.73;;
15198;SDS011;7700;48.654;9.070;2022-11-20T12:50:10;2.40;;;1.60;;
15198;SDS011;7700;48.654;9.070;2022-11-20T12:57:58;3.43;;;2.53;;
15198;SDS011;7700;48.654;9.070;2022-11-20T13:00:28;1.00;;;1.00;;
15198;SDS011;7700;48.654;9.070;2022-11-20T13:05:57;4.07;;;3.30;;
15198;SDS011;7700;48.654;9.070;2022-11-20T13:08:27;3.80;;;2.90;;
15198;SDS011;7700;48.654;9.070;2022-11-20T13:13:35;4.97;;;2.80;;
15198;SDS011;7700;48.654;9.070;2022-11-20T13:18:34;3.43;;;1.90;;
15198;SDS011;7700;48.654;9.070;2022-11-20T13:21:12;4.53;;;1.63;;
15198;SDS011;7700;48.654;9.070;2022-11-20T13:23:38;6.07;;;2.60;;
15198;SDS011;7700;48.654;9.070;2022-11-20T13:26:05;2.60;;;1.40;;
15198;SDS011;7700;48.654;9.070;2022-11-20T13:28:32;2.93;;;1.40;;
15198;SDS011;7700;48.654;9.070;2022-11-20T13:30:58;8.63;;;4.00;;
15198;SDS011;7700;48.654;9.070;2022-11-20T13:33:31;3.90;;;2.00;;
15198;SDS011;7700;48.654;9.070;2022-11-20T13:36:05;4.30;;;2.43;;
15198;SDS011;7700;48.654;9.070;2022-11-20T13:38:44;2.60;;;1.20;;
15198;SDS011;7700;48.654;9.070;2022-11-20T13:41:22;1.77;;;1.30;;
15198;SDS011;7700;48.654;9.070;2022-11-20T13:44:04;3.57;;;1.97;;
15198;SDS011;7700;48.654;9.070;2022-11-20T13:46:37;2.07;;;1.30;;
15198;SDS011;7700;48.654;9.070;2022-11-20T13:49:08;2.17;;;1.53;;
15198;SDS011;7700;48.654;9.070;2022-11-20T13:54:04;3.70;;;2.43;;
15198;SDS011;7700;48.654;9.070;2022-11-20T13:59:23;1.93;;;1.30;;
15198;SDS011;7700;48.654;9.070;2022-11-20T14:01:54;2.77;;;1.37;;
15198;SDS011;7700;48.654;9.070;2022-11-20T14:04:26;5.03;;;4.27;;
15198;SDS011;7700;48.654;9.070;2022-11-20T14:06:54;3.43;;;2.27;;
15198;SDS011;7700;48.654;9.070;2022-11-20T14:09:33;2.10;;;1.57;;
15198;SDS011;7700;48.654;9.070;2022-11-20T14:12:00;1.50;;;1.40;;
15198;SDS011;7700;48.654;9.070;2022-11-20T14:14:27;3.83;;;2.43;;
15198;SDS011;7700;48.654;9.070;2022-11-20T14:17:07;2.03;;;1.50;;
15198;SDS011;7700;48.654;9.070;2022-11-20T14:19:33;1.60;;;1.50;;
15198;SDS011;7700;48.654;9.070;2022-11-20T14:25:00;2.87;;;2.60;;
15198;SDS011;7700;48.654;9.070;2022-11-20T14:27:27;3.67;;;2.53;;
15198;SDS011;7700;48.654;9.070;2022-11-20T14:29:53;2.50;;;1.63;;
15198;SDS011;7700;48.654;9.070;2022-11-20T14:32:21;2.50;;;1.77;;
15198;SDS011;7700;48.654;9.070;2022-11-20T14:34:48;1.80;;;1.70;;
15198;SDS011;7700;48.654;9.070;2022-11-20T14:37:19;5.17;;;2.30;;
15198;SDS011;7700;48.654;9.070;2022-11-20T14:39:50;1.50;;;1.20;;
15198;SDS011;7700;48.654;9.070;2022-11-20T14:42:18;3.10;;;1.70;;
15198;SDS011;7700;48.654;9.070;2022-11-20T14:44:44;2.10;;;1.07;;
15198;SDS011;7700;48.654;9.070;2022-11-20T14:47:12;1.93;;;1.67;;
15198;SDS011;7700;48.654;9.070;2022-11-20T14:49:38;1.60;;;1.10;;
15198;SDS011;7700;48.654;9.070;2022-11-20T14:52:13;2.27;;;1.90;;
15198;SDS011;7700;48.654;9.070;2022-11-20T14:54:46;1.67;;;1.57;;
15198;SDS011;7700;48.654;9.070;2022-11-20T15:02:50;1.37;;;1.27;;
15198;SDS011;7700;48.654;9.070;2022-11-20T15:05:17;3.13;;;1.23;;
15198;SDS011;7700;48.654;9.070;2022-11-20T15:07:45;1.47;;;1.37;;
15198;SDS011;7700;48.654;9.070;2022-11-20T15:12:45;1.07;;;1.00;;
15198;SDS011;7700;48.654;9.070;2022-11-20T15:15:12;2.07;;;1.00;;
15198;SDS011;7700;48.654;9.070;2022-11-20T15:17:40;1.53;;;1.20;;
15198;SDS011;7700;48.654;9.070;2022-11-20T15:20:13;1.17;;;1.07;;
15198;SDS011;7700;48.654;9.070;2022-11-20T15:22:40;1.40;;;1.30;;
15198;SDS011;7700;48.654;9.070;2022-11-20T15:25:13;2.97;;;1.83;;
15198;SDS011;7700;48.654;9.070;2022-11-20T15:27:40;3.33;;;1.87;;
15198;SDS011;7700;48.654;9.070;2022-11-20T15:30:13;6.03;;;3.03;;
15198;SDS011;7700;48.654;9.070;2022-11-20T15:32:40;1.83;;;1.47;;
15198;SDS011;7700;48.654;9.070;2022-11-20T15:35:06;2.60;;;2.40;;
15198;SDS011;7700;48.654;9.070;2022-11-20T15:37:32;1.60;;;1.50;;
15198;SDS011;7700;48.654;9.070;2022-11-20T15:39:58;1.60;;;1.50;;
15198;SDS011;7700;48.654;9.070;2022-11-20T15:42:24;2.77;;;2.10;;
15198;SDS011;7700;48.654;9.070;2022-11-20T15:44:50;2.50;;;1.70;;
15198;SDS011;7700;48.654;9.070;2022-11-20T15:47:16;9.17;;;7.63;;
15198;SDS011;7700;48.654;9.070;2022-11-20T15:49:42;6.77;;;4.53;;
15198;SDS011;7700;48.654;9.070;2022-11-20T15:52:09;4.50;;;3.97;;
15198;SDS011;7700;48.654;9.070;2022-11-20T15:54:35;2.53;;;2.30;;
15198;SDS011;7700;48.654;9.070;2022-11-20T15:57:01;2.33;;;1.90;;
15198;SDS011;7700;48.654;9.070;2022-11-20T15:59:27;2.77;;;2.00;;
15198;SDS011;7700;48.654;9.070;2022-11-20T16:01:53;3.07;;;2.20;;
15198;SDS011;7700;48.654;9.070;2022-11-20T16:04:19;3.47;;;3.03;;
15198;SDS011;7700;48.654;9.070;2022-11-20T16:06:46;4.37;;;2.47;;
15198;SDS011;7700;48.654;9.070;2022-11-20T16:09:12;2.50;;;2.03;;
15198;SDS011;7700;48.654;9.070;2022-11-20T16:11:38;2.53;;;2.10;;
15198;SDS011;7700;48.654;9.070;2022-11-20T16:14:04;2.60;;;1.97;;
15198;SDS011;7700;48.654;9.070;2022-11-20T16:16:49;2.13;;;1.50;;
15198;SDS011;7700;48.654;9.070;2022-11-20T16:19:16;1.87;;;1.57;;
15198;SDS011;7700;48.654;9.070;2022-11-20T16:21:43;1.67;;;1.57;;
15198;SDS011;7700;48.654;9.070;2022-11-20T16:24:10;2.53;;;1.57;;
15198;SDS011;7700;48.654;9.070;2022-11-20T16:26:37;2.33;;;2.03;;
15198;SDS011;7700;48.654;9.070;2022-11-20T16:29:04;2.07;;;1.90;;
15198;SDS011;7700;48.654;9.070;2022-11-20T16:31:30;3.30;;;2.27;;
15198;SDS011;7700;48.654;9.070;2022-11-20T16:34:01;2.57;;;1.53;;
15198;SDS011;7700;48.654;9.070;2022-11-20T16:36:28;2.03;;;1.70;;
15198;SDS011;7700;48.654;9.070;2022-11-20T16:38:55;2.60;;;1.60;;
15198;SDS011;7700;48.654;9.070;2022-11-20T16:41:21;1.70;;;1.60;;
15198;SDS011;7700;48.654;9.070;2022-11-20T16:43:48;1.93;;;1.60;;
15198;SDS011;7700;48.654;9.070;2022-11-20T16:46:16;2.87;;;1.60;;
15198;SDS011;7700;48.654;9.070;2022-11-20T16:48:42;2.40;;;2.07;;